createdAt,value
2019-01-12T00:01:38.150Z,0
2019-01-12T00:04:44.197Z,0
2019-01-12T00:07:50.347Z,0
2019-01-12T00:10:56.216Z,0
2019-01-12T00:14:02.259Z,0
2019-01-12T00:17:08.247Z,0
2019-01-12T00:20:14.195Z,0
2019-01-12T00:23:20.261Z,0
2019-01-12T00:26:26.213Z,0
2019-01-12T00:29:32.387Z,0
2019-01-12T00:32:38.367Z,0
2019-01-12T00:35:44.301Z,0
2019-01-12T00:38:50.469Z,0
2019-01-12T00:41:56.450Z,0
2019-01-12T00:45:02.603Z,0
2019-01-12T00:48:08.653Z,0
2019-01-12T00:51:14.611Z,0
2019-01-12T00:54:20.854Z,0
2019-01-12T00:57:26.843Z,0
2019-01-12T01:00:33.003Z,0
2019-01-12T01:03:39.068Z,0
2019-01-12T01:06:45.024Z,0
2019-01-12T01:09:50.961Z,0
2019-01-12T01:12:56.938Z,0
2019-01-12T01:16:05.866Z,0
2019-01-12T01:19:11.830Z,0
2019-01-12T01:22:17.706Z,0
2019-01-12T01:25:23.751Z,0
2019-01-12T01:28:29.713Z,0
2019-01-12T01:31:35.806Z,0
2019-01-12T01:34:41.726Z,0
2019-01-12T01:37:47.890Z,0
2019-01-12T01:40:53.853Z,0
2019-01-12T01:43:59.941Z,0
2019-01-12T01:47:06.075Z,0
2019-01-12T01:50:12.169Z,0
2019-01-12T01:53:18.226Z,0
2019-01-12T01:56:24.321Z,0
2019-01-12T01:59:30.334Z,0
2019-01-12T02:02:36.399Z,0
2019-01-12T02:05:42.460Z,0
2019-01-12T02:08:48.405Z,0
2019-01-12T02:11:54.368Z,0
2019-01-12T02:15:00.428Z,0
2019-01-12T02:18:06.586Z,0
2019-01-12T02:21:12.464Z,0
2019-01-12T02:24:18.617Z,0
2019-01-12T02:27:24.678Z,0
2019-01-12T02:30:33.614Z,0
2019-01-12T02:33:39.769Z,0
2019-01-12T02:36:45.710Z,0
2019-01-12T02:39:51.894Z,0
2019-01-12T02:42:57.855Z,0
2019-01-12T02:46:04.072Z,0
2019-01-12T02:49:09.977Z,0
2019-01-12T02:52:15.937Z,0
2019-01-12T02:55:21.810Z,0
2019-01-12T02:58:27.858Z,0
2019-01-12T03:01:33.824Z,0
2019-01-12T03:04:39.865Z,0
2019-01-12T03:07:45.951Z,0
2019-01-12T03:10:51.826Z,0
2019-01-12T03:13:57.868Z,0
2019-01-12T03:17:04.031Z,0
2019-01-12T03:20:11.157Z,0
2019-01-12T03:23:17.179Z,0
2019-01-12T03:26:23.288Z,0
2019-01-12T03:29:29.299Z,0
2019-01-12T03:32:35.545Z,0
2019-01-12T03:35:41.622Z,0
2019-01-12T03:38:47.768Z,0
2019-01-12T03:41:53.830Z,0
2019-01-12T03:44:59.710Z,0
2019-01-12T03:48:05.775Z,0
2019-01-12T03:51:11.726Z,0
2019-01-12T03:54:17.791Z,0
2019-01-12T03:57:23.729Z,0
2019-01-12T04:00:29.820Z,0
2019-01-12T04:03:35.870Z,0
2019-01-12T04:06:42.047Z,0
2019-01-12T04:09:48.105Z,0
2019-01-12T04:12:54.067Z,0
2019-01-12T04:16:00.136Z,0
2019-01-12T04:19:06.062Z,0
2019-01-12T04:22:12.147Z,0
2019-01-12T04:25:18.211Z,0
2019-01-12T04:28:24.269Z,0
2019-01-12T04:31:30.353Z,0
2019-01-12T04:34:36.442Z,0
2019-01-12T04:37:42.517Z,0
2019-01-12T04:40:48.353Z,0
2019-01-12T04:43:56.922Z,0
2019-01-12T04:47:02.967Z,1
2019-01-12T04:50:09.129Z,1.9
2019-01-12T04:53:15.002Z,0
2019-01-12T04:56:23.731Z,0
2019-01-12T04:59:29.801Z,0
2019-01-12T05:02:35.762Z,0
2019-01-12T05:05:41.630Z,0
2019-01-12T05:08:47.570Z,0
2019-01-12T05:11:53.639Z,0
2019-01-12T05:14:59.589Z,0
2019-01-12T05:18:05.549Z,0
2019-01-12T05:21:11.421Z,0
2019-01-12T05:24:17.365Z,0
2019-01-12T05:27:23.326Z,0
2019-01-12T05:30:29.403Z,0
2019-01-12T05:33:35.348Z,0
2019-01-12T05:36:41.310Z,0
2019-01-12T05:39:50.005Z,0
2019-01-12T05:42:55.992Z,0
2019-01-12T05:46:01.864Z,0.1
2019-01-12T05:49:07.809Z,0.1
2019-01-12T05:52:13.835Z,0.1
2019-01-12T05:55:19.815Z,0.2
2019-01-12T05:58:25.995Z,0.3
2019-01-12T06:01:31.958Z,0.4
2019-01-12T06:04:37.830Z,0.4
2019-01-12T06:07:43.736Z,0.5
2019-01-12T06:10:49.740Z,0.6
2019-01-12T06:13:55.796Z,0.8
2019-01-12T06:17:01.756Z,0.8
2019-01-12T06:20:07.723Z,1
2019-01-12T06:23:13.588Z,1.3
2019-01-12T06:26:19.545Z,1.5
2019-01-12T06:29:25.504Z,1.7
2019-01-12T06:32:31.377Z,2
2019-01-12T06:35:37.427Z,2.1
2019-01-12T06:38:43.324Z,2.3
2019-01-12T06:41:49.340Z,2.5
2019-01-12T06:44:56.548Z,2.7
2019-01-12T06:48:02.589Z,3.1
2019-01-12T06:51:08.747Z,3.2
2019-01-12T06:54:15.012Z,3.3
2019-01-12T06:57:20.926Z,3.4
2019-01-12T07:00:26.978Z,3.2
2019-01-12T07:03:33.045Z,3.4
2019-01-12T07:06:38.949Z,3.6
2019-01-12T07:09:45.030Z,4
2019-01-12T07:12:50.949Z,4
2019-01-12T07:15:57.028Z,4.3
2019-01-12T07:19:02.954Z,4.8
2019-01-12T07:22:09.054Z,5.2
2019-01-12T07:25:14.925Z,5.6
2019-01-12T07:28:20.878Z,5.9
2019-01-12T07:31:26.743Z,6.3
2019-01-12T07:34:32.685Z,6.7
2019-01-12T07:37:38.746Z,6.8
2019-01-12T07:40:44.621Z,7.1
2019-01-12T07:43:50.669Z,7
2019-01-12T07:46:56.541Z,6.7
2019-01-12T07:50:02.813Z,6.7
2019-01-12T07:53:08.753Z,7.4
2019-01-12T07:56:14.624Z,7.4
2019-01-12T07:59:20.563Z,7.5
2019-01-12T08:02:26.579Z,7.8
2019-01-12T08:05:32.585Z,8.1
2019-01-12T08:08:38.455Z,8.4
2019-01-12T08:11:44.423Z,8.6
2019-01-12T08:14:50.468Z,8.6
2019-01-12T08:17:56.424Z,8.6
2019-01-12T08:21:02.382Z,8.9
2019-01-12T08:24:08.445Z,9.4
2019-01-12T08:27:14.316Z,9.6
2019-01-12T08:30:20.364Z,9.8
2019-01-12T08:33:26.419Z,9.9
2019-01-12T08:36:32.390Z,10.4
2019-01-12T08:39:38.279Z,10.9
2019-01-12T08:42:44.205Z,11.6
2019-01-12T08:45:50.268Z,16.6
2019-01-12T08:48:56.152Z,20
2019-01-12T08:52:02.189Z,24.7
2019-01-12T08:55:08.109Z,25.9
2019-01-12T08:58:14.000Z,30.2
2019-01-12T09:01:22.416Z,30.8
2019-01-12T09:04:28.376Z,29.3
2019-01-12T09:07:34.335Z,26.5
2019-01-12T09:10:40.209Z,25.2
2019-01-12T09:13:48.772Z,23
2019-01-12T09:16:57.415Z,21.6
2019-01-12T09:20:03.395Z,21
2019-01-12T09:23:09.354Z,20.3
2019-01-12T09:26:15.272Z,20.7
2019-01-12T09:29:21.177Z,22.5
2019-01-12T09:32:27.135Z,22.4
2019-01-12T09:35:33.091Z,21.6
2019-01-12T09:38:38.961Z,21.6
2019-01-12T09:41:44.916Z,20.9
2019-01-12T09:44:50.779Z,19.2
2019-01-12T09:47:56.742Z,17.2
2019-01-12T09:51:02.596Z,16.6
2019-01-12T09:54:08.549Z,16.6
2019-01-12T09:57:14.515Z,27.4
2019-01-12T10:00:20.529Z,20.3
2019-01-12T10:03:26.476Z,18.6
2019-01-12T10:06:32.543Z,31
2019-01-12T10:09:40.963Z,26.3
2019-01-12T10:12:47.012Z,31.3
2019-01-12T10:15:52.923Z,30.4
2019-01-12T10:18:58.876Z,33.3
2019-01-12T10:22:04.842Z,31
2019-01-12T10:25:10.711Z,28.3
2019-01-12T10:28:16.653Z,24.1
2019-01-12T10:31:22.613Z,20.8
2019-01-12T10:34:28.578Z,20.8
2019-01-12T10:37:34.487Z,20.9
2019-01-12T10:40:40.497Z,22.6
2019-01-12T10:43:46.454Z,21.5
2019-01-12T10:46:52.464Z,22.3
2019-01-12T10:49:58.476Z,23
2019-01-12T10:53:05.900Z,31.5
2019-01-12T10:56:11.828Z,25.4
2019-01-12T10:59:17.695Z,26.3
2019-01-12T11:02:23.726Z,25.9
2019-01-12T11:05:29.635Z,31.1
2019-01-12T11:08:35.682Z,27
2019-01-12T11:11:41.628Z,36.5
2019-01-12T11:14:50.354Z,30.2
2019-01-12T11:17:56.261Z,34.4
2019-01-12T11:21:02.273Z,38.9
2019-01-12T11:24:08.364Z,39.4
2019-01-12T11:27:15.421Z,40
2019-01-12T11:30:21.376Z,38.9
2019-01-12T11:33:27.284Z,37.1
2019-01-12T11:36:33.349Z,36.5
2019-01-12T11:39:39.255Z,26.1
2019-01-12T11:42:46.076Z,30.8
2019-01-12T11:45:53.828Z,29
2019-01-12T11:48:59.757Z,28.1
2019-01-12T11:52:05.749Z,27
2019-01-12T11:55:11.798Z,26.1
2019-01-12T11:58:17.774Z,19.2
2019-01-12T12:01:26.071Z,26.6
2019-01-12T12:04:33.177Z,26.6
2019-01-12T12:07:39.191Z,27.2
2019-01-12T12:10:45.099Z,27.4
2019-01-12T12:13:50.966Z,27.2
2019-01-12T12:16:56.908Z,26.1
2019-01-12T12:20:02.872Z,26.5
2019-01-12T12:23:08.738Z,25.7
2019-01-12T12:26:15.002Z,23.6
2019-01-12T12:29:23.475Z,24.5
2019-01-12T12:32:29.321Z,22.7
2019-01-12T12:35:40.974Z,21.7
2019-01-12T12:38:46.838Z,23
2019-01-12T12:41:52.782Z,23.8
2019-01-12T12:44:58.742Z,22.1
2019-01-12T12:48:05.017Z,23.2
2019-01-12T12:51:10.923Z,23.6
2019-01-12T12:54:16.825Z,23
2019-01-12T12:57:22.778Z,23.2
2019-01-12T13:00:28.673Z,22.9
2019-01-12T13:03:34.595Z,22.8
2019-01-12T13:06:40.659Z,22.6
2019-01-12T13:09:46.617Z,22.3
2019-01-12T13:12:52.581Z,22
2019-01-12T13:15:58.453Z,21.6
2019-01-12T13:19:04.417Z,20.8
2019-01-12T13:22:10.361Z,20.2
2019-01-12T13:25:16.311Z,19.1
2019-01-12T13:28:22.193Z,18.1
2019-01-12T13:31:29.663Z,16.7
2019-01-12T13:34:35.726Z,16.2
2019-01-12T13:37:41.605Z,15.3
2019-01-12T13:40:47.668Z,13.8
2019-01-12T13:43:56.276Z,12.8
2019-01-12T13:47:02.228Z,11.9
2019-01-12T13:50:08.201Z,12.4
2019-01-12T13:53:14.145Z,12
2019-01-12T13:56:20.107Z,11.9
2019-01-12T13:59:26.121Z,11.7
2019-01-12T14:02:32.027Z,11.5
2019-01-12T14:05:37.986Z,11
2019-01-12T14:08:44.045Z,10.6
2019-01-12T14:11:49.917Z,10.2
2019-01-12T14:14:55.880Z,9.6
2019-01-12T14:18:01.853Z,9.1
2019-01-12T14:21:07.889Z,8.2
2019-01-12T14:24:13.854Z,7.6
2019-01-12T14:27:19.772Z,7.2
2019-01-12T14:30:25.767Z,6.6
2019-01-12T14:33:31.637Z,6
2019-01-12T14:36:37.629Z,5.5
2019-01-12T14:39:43.648Z,4.9
2019-01-12T14:42:49.601Z,4.4
2019-01-12T14:45:55.561Z,3.9
2019-01-12T14:49:01.439Z,3.4
2019-01-12T14:52:07.482Z,2.8
2019-01-12T14:55:16.100Z,2.3
2019-01-12T14:58:22.177Z,1.8
2019-01-12T15:01:28.122Z,1.4
2019-01-12T15:04:34.285Z,1.1
2019-01-12T15:07:40.372Z,0.8
2019-01-12T15:10:46.411Z,0.6
2019-01-12T15:13:52.379Z,0.5
2019-01-12T15:16:58.431Z,1.4
2019-01-12T15:20:04.449Z,1.8
2019-01-12T15:23:10.351Z,1.8
2019-01-12T15:26:16.260Z,1.7
2019-01-12T15:29:25.235Z,1.7
2019-01-12T15:32:31.104Z,1.6
2019-01-12T15:35:37.139Z,1.6
2019-01-12T15:38:43.127Z,1.6
2019-01-12T15:41:48.992Z,1.6
2019-01-12T15:44:55.125Z,1.6
2019-01-12T15:48:01.101Z,1.6
2019-01-12T15:51:07.058Z,1.6
2019-01-12T15:54:12.929Z,1.6
2019-01-12T15:57:18.876Z,1.6
2019-01-12T16:00:24.833Z,1.6
2019-01-12T16:03:30.920Z,1.6
2019-01-12T16:06:36.855Z,1.6
2019-01-12T16:09:42.727Z,1.6
2019-01-12T16:12:48.886Z,1.6
2019-01-12T16:15:54.834Z,1.6
2019-01-12T16:19:01.007Z,1.6
2019-01-12T16:22:06.977Z,1.6
2019-01-12T16:25:12.919Z,1.6
2019-01-12T16:28:26.152Z,1.6
2019-01-12T16:31:32.110Z,1.6
2019-01-12T16:34:37.984Z,1.6
2019-01-12T16:37:44.027Z,1.6
2019-01-12T16:40:49.989Z,1.6
2019-01-12T16:43:55.866Z,1.6
2019-01-12T16:47:01.905Z,1.6
2019-01-12T16:50:07.847Z,1.6
2019-01-12T16:53:13.934Z,1.6
2019-01-12T16:56:19.905Z,1.6
2019-01-12T16:59:25.847Z,1.6
2019-01-12T17:02:31.812Z,1.6
2019-01-12T17:05:37.776Z,1.6
2019-01-12T17:08:43.757Z,1.6
2019-01-12T17:11:49.688Z,1.6
2019-01-12T17:14:55.660Z,1.6
2019-01-12T17:18:01.527Z,1.6
2019-01-12T17:21:07.575Z,1.6
2019-01-12T17:24:13.441Z,1.6
2019-01-12T17:27:19.390Z,1.6
2019-01-12T17:30:25.472Z,1.6
2019-01-12T17:33:31.618Z,1.6
2019-01-12T17:36:37.487Z,1.6
2019-01-12T17:39:43.434Z,1.6
2019-01-12T17:42:49.382Z,1.6
2019-01-12T17:45:55.252Z,1.6
2019-01-12T17:49:01.210Z,1.6
2019-01-12T17:52:07.168Z,1.6
2019-01-12T17:55:14.820Z,1.6
2019-01-12T17:58:20.817Z,1.6
2019-01-12T18:01:26.789Z,1.6
2019-01-12T18:04:32.802Z,1.6
2019-01-12T18:07:40.027Z,1.6
2019-01-12T18:10:45.987Z,1.6
2019-01-12T18:13:51.946Z,1.6
2019-01-12T18:16:57.917Z,1.6
2019-01-12T18:20:03.947Z,1.6
2019-01-12T18:23:09.818Z,1.6
2019-01-12T18:26:15.814Z,1.6
2019-01-12T18:29:21.742Z,1.6
2019-01-12T18:32:27.718Z,1.6
2019-01-12T18:35:33.671Z,1.6
2019-01-12T18:38:39.620Z,1.6
2019-01-12T18:41:45.582Z,1.6
2019-01-12T18:44:51.649Z,1.6
2019-01-12T18:47:57.603Z,1.6
2019-01-12T18:51:03.568Z,1.6
2019-01-12T18:54:09.443Z,1.6
2019-01-12T18:57:17.532Z,1.6
2019-01-12T19:00:23.405Z,1.6
2019-01-12T19:03:29.456Z,1.6
2019-01-12T19:06:35.406Z,1.6
2019-01-12T19:09:41.573Z,1.6
2019-01-12T19:12:48.450Z,1.6
2019-01-12T19:15:54.411Z,1.6
2019-01-12T19:19:00.387Z,1.6
2019-01-12T19:22:06.263Z,1.6
2019-01-12T19:25:12.294Z,1.6
2019-01-12T19:28:18.357Z,1.6
2019-01-12T19:31:24.271Z,1.6
2019-01-12T19:34:30.177Z,1.6
2019-01-12T19:37:36.143Z,1.6
2019-01-12T19:40:42.199Z,1.6
2019-01-12T19:43:48.074Z,1.6
2019-01-12T19:46:56.832Z,1.6
2019-01-12T19:50:02.832Z,1.6
2019-01-12T19:53:08.916Z,0
2019-01-12T19:56:14.868Z,0
2019-01-12T19:59:23.314Z,0
2019-01-12T20:02:29.203Z,0
2019-01-12T20:05:35.196Z,0
2019-01-12T20:08:41.157Z,0
2019-01-12T20:11:47.064Z,0
2019-01-12T20:14:53.135Z,0
2019-01-12T20:17:58.946Z,0
2019-01-12T20:21:04.884Z,0
2019-01-12T20:24:10.764Z,0
2019-01-12T20:27:16.715Z,0
2019-01-12T20:30:22.674Z,0
2019-01-12T20:33:28.575Z,0
2019-01-12T20:36:34.587Z,0
2019-01-12T20:39:40.542Z,0
2019-01-12T20:42:46.585Z,0
2019-01-12T20:45:52.462Z,0
2019-01-12T20:48:58.528Z,0
2019-01-12T20:52:04.479Z,0
2019-01-12T20:55:10.352Z,0
2019-01-12T20:58:16.301Z,0
2019-01-12T21:01:22.261Z,0
2019-01-12T21:04:31.198Z,0
2019-01-12T21:07:37.148Z,0
2019-01-12T21:10:43.216Z,0
2019-01-12T21:13:50.656Z,0
2019-01-12T21:16:56.522Z,0
2019-01-12T21:20:02.721Z,0
2019-01-12T21:23:08.759Z,0
2019-01-12T21:26:14.572Z,0
2019-01-12T21:29:20.499Z,0
2019-01-12T21:32:26.372Z,0
2019-01-12T21:35:32.420Z,0
2019-01-12T21:38:38.294Z,0
2019-01-12T21:41:44.234Z,137.5
2019-01-12T21:44:51.730Z,226.1
2019-01-12T21:47:57.700Z,0
2019-01-12T21:51:03.566Z,0
2019-01-12T21:54:09.515Z,0
2019-01-12T21:57:15.380Z,0
2019-01-12T22:00:21.427Z,0
2019-01-12T22:03:27.300Z,0
2019-01-12T22:06:33.346Z,0
2019-01-12T22:09:39.221Z,0
2019-01-12T22:12:45.272Z,0
2019-01-12T22:15:51.143Z,0
2019-01-12T22:18:57.169Z,0
2019-01-12T22:22:03.143Z,0
2019-01-12T22:25:09.101Z,0
2019-01-12T22:28:15.100Z,0
2019-01-12T22:31:21.023Z,0
2019-01-12T22:34:26.990Z,0
2019-01-12T22:37:32.996Z,0
2019-01-12T22:40:38.815Z,0
2019-01-12T22:43:44.858Z,0
2019-01-12T22:46:53.498Z,0
2019-01-12T22:49:59.558Z,0
2019-01-12T22:53:05.522Z,0
2019-01-12T22:56:11.562Z,0
2019-01-12T22:59:17.526Z,0
2019-01-12T23:02:23.542Z,0
2019-01-12T23:05:29.561Z,0
2019-01-12T23:08:35.537Z,0
2019-01-12T23:11:41.580Z,0
2019-01-12T23:14:47.525Z,0
2019-01-12T23:17:53.484Z,0
2019-01-12T23:20:59.355Z,0
2019-01-12T23:24:05.410Z,0
2019-01-12T23:27:11.361Z,0
2019-01-12T23:30:17.444Z,0
2019-01-12T23:33:23.336Z,0
2019-01-12T23:36:29.240Z,0
2019-01-12T23:39:35.223Z,0
2019-01-12T23:42:41.283Z,0
2019-01-12T23:45:47.172Z,0
2019-01-12T23:48:53.080Z,0
2019-01-12T23:52:00.215Z,0
2019-01-12T23:55:06.139Z,0
2019-01-12T23:58:12.187Z,0
